Welcome to the New NWS' Forecast!
Most changes are behind the scenes, but click here for differences you might notice.
Latest weather observations around

MANZANITA LAKE (VIOC1)

Using English Units (Switch to International System of Units)
Date/ Time (PST) Wind (mph) Vis. (mi) Weather Sky Cond. Temp (°F) Rel. Humidity Wind Chill (°F) Heat Index (°F) Pressure Precip. (in)
Air Dwpt 6 hour Altimeter (inHg) Sea level (inHg) 1 hr 3 hr 6 hr
Max Min
Nov 17 23:52 E 3   Clear   17 14     88% 12            
Nov 17 22:52 E 2   Clear   17 14     89%              
Nov 17 21:52 ESE 1   Clear   18 15     89%              
Nov 17 20:52 E 1   Clear   19 16     89%              
Nov 17 19:52 ESE 1   Clear   21 19     91%              
Nov 17 18:52 Calm   Clear   23 22     94%              
Nov 17 17:52 Calm   Clear   25 24     95%              
Nov 17 16:52 Calm   Clear   27 26     94%              
Nov 17 15:52 E 2   Clear   34 25     68%              
Nov 17 14:52 NE 3   Clear   42 27     54% 41            
Nov 17 13:52 ENE 3   Clear   41 20     43% 39            
Nov 17 12:52 ENE 4   Clear   41 20     42% 38            
Nov 17 11:52 ESE 3   Clear   41 25     53% 39            
Nov 17 10:52 ESE 4   Clear   37 24     60% 34            
Nov 17 09:52 ENE 3   Clear   36 28     72% 34            
Nov 17 08:52 Calm   Clear   27 25     92%              
Nov 17 07:52 Calm   Clear   23 21     93%              
Nov 17 06:52 Calm   Clear   25 24     95%              
Nov 17 05:52 Calm   Clear   27 26     96%              
Nov 17 04:52 WNW 2   Clear   28 27     97%              
Nov 17 03:52 WSW 3   Clear   28 27     97% 25            
Nov 17 02:52 SW 4   Clear   29 29     98% 25            
Nov 17 01:52 WSW 4   Clear   29 29     98% 25            
Nov 17 00:52 WSW 4   Clear   29 28     97% 25            
Nov 16 23:52 SW 3   Clear   29 28     97% 26            
Nov 16 22:52 WSW 4   Clear   29 28     97% 25            
Nov 16 21:52 WSW 2   Clear   30 29     96%              
Nov 16 20:52 SSW 8   Clear   35 32     88% 29            
Nov 16 19:52 SSW 7   Clear   35 31     85% 29            
Nov 16 18:52 SSW 7   Clear   35 32     89% 29            
Nov 16 17:52 SSW 6   Clear   35 32     87% 30            
Nov 16 16:52 SSW 7   Clear   35 31     84% 29            
Nov 16 15:52 SSW 4   Clear   35 33     93% 32            
Nov 16 14:52 SSW 5   Clear   35 34     97% 31            
Nov 16 13:52 SSW 6   Clear   37 33     86% 32            
Nov 16 12:52 SW 7   Clear   36 35     98% 30            
Nov 16 11:52 WSW 7   Clear   36 34     94% 30            
Nov 16 10:52 SW 7   Clear   39 35     84% 34            
Nov 16 09:52 S 6   Clear   38 35     89% 33            
Nov 16 08:52 S 7   Clear   37 34     88% 32            
Nov 16 07:52 S 7   Clear   37 34     89% 32            
Nov 16 06:52 SSW 4   Clear   36 35     97% 33            
Nov 16 05:52 SSW 4   Clear   36 35     95% 33            
Nov 16 04:52 S 7   Clear   36 36     99% 30            
Nov 16 03:52 SW 5   Clear   35 35     99% 31            
Nov 16 02:52 SW 5   Clear   37 37     99% 33            
Nov 16 01:52 SW 5   Clear   37 37     99% 33            
Nov 16 00:52 W 5   Clear   38 38     99% 34            
Nov 15 23:52 SW 7   Clear   40 40     99% 35            
Nov 15 22:52 SW 6   Clear   41 41     99% 37            
Nov 15 21:52 SW 6   Clear   40 39     98% 36            
Nov 15 20:52 SSW 9   Clear   41 39     94% 35            
Notice The following observation data may not be complete
Nov 15 19:52 SSW 11   Clear     41      %              
Nov 15 18:52 S 9   Clear   42 40     94% 37            
Nov 15 17:52 S 9   Clear   41 39     93% 35            
Nov 15 16:52 SSW 9   Clear   39 36     88% 33            
Nov 15 15:52 S 8   Clear   37 35     91% 31            
Nov 15 14:52 SSW 7   Clear   37 34     89% 32            
Nov 15 13:52 SSW 4   Clear   36 35     95% 33            
Nov 15 11:52 Calm   Clear   33 32     98%              
Nov 15 10:52 Calm   Clear   33 32     97%              
Nov 15 09:52 Calm   Clear   33 32     98%              
Nov 15 07:52 NW 1   Clear   32 32     99%              
Nov 15 06:52 W 1   Clear   32 31     98%              
Nov 15 05:52 WNW 2   Clear   32 31     98%              
Nov 15 04:52 W 3   Clear   33 32     97% 30            
Nov 15 03:52 WSW 5   Clear   34 30     85% 29            
Nov 15 02:52 SSW 5   Clear   38 21     49% 34            
Nov 15 01:52 SSW 2   Clear   33 33     99%              
Nov 15 00:52 WNW 3   Clear   33 33     99% 30            
Jun 11 12:52 WSW 5   Clear   38 36     91% 34            
Jun 10 04:52 WSW 2   Clear   35 33     91%              
Jun 09 19:52 WNW 4   Clear   42 40     93% 40            
Jun 09 01:52 WSW 1   Clear   40 40     100%              
Jun 09 00:52 Calm   Clear   39 39     100%              
Jun 08 21:52 W 1   Clear   41 40     98%              
Jun 07 20:52 SSW 5   Clear   57 34     41%              
Jun 05 13:52 SW 5   Clear   73 32     22%   71